GUNE weather

Kiniéro Airport
Kiniéro, Kankan Region, Guinea

Public forecast

Using degrees Celsius for public forecast. Weather courtesy of forecast.io.

Closest aviation weather report (METAR) to Kiniéro Airport

Report is more than 6 hours old.

Closest report is Odienne Airport, 141.9 nm (262.8 km) ESE. Retrieved 2019/09/03 13:00 UTC (1 month ago):

DIOD 031300Z 12006KT 8000 VCRA SCT013TCU BKN100 28/24 Q1015 NOSIG

Closest aviation forecast (TAF) to Kiniéro Airport

Forecast is more than 12 hours old.

Closest forecast is Boundiali Airport, 202.8 nm (375.6 km) ESE. Retrieved 2009/12/27 10:00 UTC (10 years ago):

TAF DIBI 271000Z 2712/2812 30008KT 6000 FEW015 PROB30 TEMPO 2715/2719 3000 HZ TEMPO 2806/2809 3000 BR